Time;durP1;ratioP1;P1;durP2;ratioP2;P2;SDS_P1;SDS_P2;PMS_P1;PMS_P2;Temp;Humidity;BMP_temperature;BMP_pressure;BME280_temperature;BME280_humidity;BME280_pressure;Samples;Min_cycle;Max_cycle;Signal;HPM_P1;HPM_P2
2022/11/17 00:00:13;;;;;;;;;;;19.80;70.50;;;;;;4515531;31;19995;-68
2022/11/17 00:02:39;;;;;;;;;;;19.80;70.50;;;;;;4525874;31;20028;-68
2022/11/17 00:05:05;;;;;;;;;;;19.80;70.50;;;;;;4514301;31;20028;-67
2022/11/17 00:07:31;;;;;;;;;;;19.80;70.50;;;;;;4504423;31;20037;-68
2022/11/17 00:09:56;;;;;;;;;;;19.80;70.50;;;;;;4502512;31;20036;-69
2022/11/17 00:15:09;;;;;;;;;;;19.70;70.30;;;;;;4511329;31;20021;-69
2022/11/17 00:17:34;;;;;;;;;;;19.70;70.40;;;;;;4513201;31;20173;-68
2022/11/17 00:22:47;;;;;;;;;;;19.70;70.30;;;;;;4513982;31;20036;-68
2022/11/17 00:25:12;;;;;;;;;;;19.70;70.30;;;;;;4511148;31;20039;-67
2022/11/17 00:27:38;;;;;;;;;;;19.70;70.30;;;;;;4510694;31;20528;-68
2022/11/17 00:30:05;;;;;;;;;;;19.70;70.30;;;;;;4511954;31;20091;-67
2022/11/17 00:35:18;;;;;;;;;;;19.60;70.20;;;;;;4499609;31;20048;-68
2022/11/17 00:40:29;;;;;;;;;;;19.60;70.20;;;;;;4498159;31;20084;-68
2022/11/17 00:42:55;;;;;;;;;;;19.60;70.20;;;;;;4496982;31;20109;-68
2022/11/17 00:45:21;;;;;;;;;;;19.60;70.20;;;;;;4494696;31;20032;-69
2022/11/17 00:47:47;;;;;;;;;;;19.60;70.20;;;;;;4496229;31;20614;-67
2022/11/17 00:50:13;;;;;;;;;;;19.60;70.20;;;;;;4493278;31;20078;-68
2022/11/17 00:52:39;;;;;;;;;;;19.60;70.20;;;;;;4496675;31;20091;-68
2022/11/17 00:55:05;;;;;;;;;;;19.60;70.30;;;;;;4497226;31;20072;-68
2022/11/17 00:57:30;;;;;;;;;;;19.60;70.30;;;;;;4497629;31;20393;-69
2022/11/17 00:59:56;;;;;;;;;;;19.50;70.20;;;;;;4496293;31;19978;-68
2022/11/17 01:02:22;;;;;;;;;;;19.50;70.20;;;;;;4496931;31;20036;-69
2022/11/17 01:04:48;;;;;;;;;;;19.50;70.10;;;;;;4498239;31;20024;-68
2022/11/17 01:07:14;;;;;;;;;;;19.50;70.20;;;;;;4510438;31;20110;-67
2022/11/17 01:09:40;;;;;;;;;;;19.50;70.20;;;;;;4511036;31;20171;-68
2022/11/17 01:12:06;;;;;;;;;;;19.50;70.20;;;;;;4510856;31;20013;-68
2022/11/17 01:14:31;;;;;;;;;;;19.40;70.10;;;;;;4510608;31;20126;-68
2022/11/17 01:16:57;;;;;;;;;;;19.40;70.20;;;;;;4510521;31;19993;-67
2022/11/17 01:19:23;;;;;;;;;;;19.40;70.10;;;;;;4525081;31;20025;-68
2022/11/17 01:21:48;;;;;;;;;;;19.40;70.10;;;;;;4511516;31;20032;-67
2022/11/17 01:24:15;;;;;;;;;;;19.40;70.10;;;;;;4512228;31;20017;-68
2022/11/17 01:26:41;;;;;;;;;;;19.40;70.10;;;;;;4514418;31;20162;-68
2022/11/17 01:29:09;;;;;;;;;;;19.40;70.00;;;;;;4512340;31;20037;-68
2022/11/17 01:31:37;;;;;;;;;;;19.40;70.10;;;;;;4510525;31;20095;-68
2022/11/17 01:34:03;;;;;;;;;;;19.30;70.00;;;;;;4511592;31;20311;-67
2022/11/17 01:36:30;;;;;;;;;;;19.30;69.90;;;;;;4512784;31;20481;-68
2022/11/17 01:38:55;;;;;;;;;;;19.30;69.90;;;;;;4510651;31;20039;-68
2022/11/17 01:41:22;;;;;;;;;;;19.30;69.90;;;;;;4507803;31;20126;-69
2022/11/17 01:43:52;;;;;;;;;;;19.30;69.90;;;;;;4513826;31;20033;-68
2022/11/17 01:46:18;;;;;;;;;;;19.30;69.90;;;;;;4508664;31;20017;-68
2022/11/17 01:48:44;;;;;;;;;;;19.30;69.90;;;;;;4513389;31;20021;-68
2022/11/17 01:51:12;;;;;;;;;;;19.30;69.90;;;;;;4499055;31;19977;-67
2022/11/17 01:53:38;;;;;;;;;;;19.30;69.80;;;;;;4512589;31;20042;-68
2022/11/17 01:56:05;;;;;;;;;;;19.20;69.70;;;;;;4514190;31;20467;-67
2022/11/17 01:58:33;;;;;;;;;;;19.20;69.80;;;;;;4511719;31;20158;-68
2022/11/17 02:00:59;;;;;;;;;;;19.20;69.70;;;;;;4510486;31;20082;-67
2022/11/17 02:03:25;;;;;;;;;;;19.20;69.70;;;;;;4506024;31;20037;-67
2022/11/17 02:05:56;;;;;;;;;;;19.20;69.80;;;;;;4514053;31;20032;-68
2022/11/17 02:08:25;;;;;;;;;;;19.20;69.70;;;;;;4509338;31;20052;-67
2022/11/17 02:10:51;;;;;;;;;;;19.20;69.70;;;;;;4510704;31;20469;-67
2022/11/17 02:13:17;;;;;;;;;;;19.20;69.70;;;;;;4512261;31;20530;-67
2022/11/17 02:15:43;;;;;;;;;;;19.20;69.70;;;;;;4511548;31;20033;-67
2022/11/17 02:18:09;;;;;;;;;;;19.10;69.70;;;;;;4514058;31;20037;-68
2022/11/17 02:20:53;;;;;;;;;;;19.10;69.60;;;;;;4510603;31;20072;-68
2022/11/17 02:23:28;;;;;;;;;;;19.10;69.60;;;;;;4509609;31;20039;-67
2022/11/17 02:26:00;;;;;;;;;;;19.10;69.60;;;;;;4515552;31;20051;-67
2022/11/17 02:28:56;;;;;;;;;;;19.10;69.50;;;;;;4507644;31;20099;-68
2022/11/17 02:31:48;;;;;;;;;;;19.00;69.50;;;;;;4512045;31;20044;-68
2022/11/17 02:34:14;;;;;;;;;;;19.00;69.50;;;;;;4500582;31;19992;-67
2022/11/17 02:36:40;;;;;;;;;;;19.00;69.50;;;;;;4512151;31;20020;-68
2022/11/17 02:39:10;;;;;;;;;;;19.00;69.50;;;;;;4512439;31;20139;-67
2022/11/17 02:41:49;;;;;;;;;;;19.00;69.50;;;;;;4510638;31;20052;-68
2022/11/17 02:44:25;;;;;;;;;;;19.00;69.50;;;;;;4509667;31;20036;-68
2022/11/17 02:47:11;;;;;;;;;;;19.00;69.50;;;;;;4496793;31;20138;-67
2022/11/17 02:49:38;;;;;;;;;;;19.00;69.50;;;;;;4497028;31;20058;-68
2022/11/17 02:52:05;;;;;;;;;;;19.00;69.50;;;;;;4498199;31;20163;-67
2022/11/17 02:54:31;;;;;;;;;;;18.90;69.40;;;;;;4522506;31;20043;-68
2022/11/17 02:56:57;;;;;;;;;;;18.90;69.40;;;;;;4514411;31;20374;-68
2022/11/17 02:59:32;;;;;;;;;;;18.90;69.30;;;;;;4498185;31;20037;-68
2022/11/17 03:02:13;;;;;;;;;;;18.90;69.40;;;;;;4499706;31;20087;-68
2022/11/17 03:04:44;;;;;;;;;;;18.90;69.30;;;;;;4502746;31;20051;-67
2022/11/17 03:07:20;;;;;;;;;;;18.90;69.40;;;;;;4506286;31;20024;-66
2022/11/17 03:09:56;;;;;;;;;;;18.90;69.40;;;;;;4516480;31;20389;-68
2022/11/17 03:12:22;;;;;;;;;;;18.90;69.30;;;;;;4515112;31;20020;-68
2022/11/17 03:14:56;;;;;;;;;;;18.90;69.40;;;;;;4515440;31;20059;-68
2022/11/17 03:17:25;;;;;;;;;;;18.90;69.30;;;;;;4516216;31;20033;-67
2022/11/17 03:20:17;;;;;;;;;;;18.90;69.30;;;;;;4514062;31;20024;-68
2022/11/17 03:23:04;;;;;;;;;;;18.90;69.10;;;;;;4514545;31;20052;-68
2022/11/17 03:25:33;;;;;;;;;;;18.90;69.20;;;;;;4515838;31;20082;-67
2022/11/17 03:28:02;;;;;;;;;;;18.80;69.20;;;;;;4513687;31;20032;-68
2022/11/17 03:30:28;;;;;;;;;;;18.80;69.10;;;;;;4516198;31;20017;-68
2022/11/17 03:33:01;;;;;;;;;;;18.80;69.10;;;;;;4513920;31;20036;-67
2022/11/17 03:35:28;;;;;;;;;;;18.80;69.10;;;;;;4515931;31;20040;-67
2022/11/17 03:37:57;;;;;;;;;;;18.80;69.10;;;;;;4514182;31;20024;-67
2022/11/17 03:40:27;;;;;;;;;;;18.80;69.10;;;;;;4515448;31;20060;-68
2022/11/17 03:42:55;;;;;;;;;;;18.80;69.00;;;;;;4515860;31;20037;-67
2022/11/17 03:45:21;;;;;;;;;;;18.80;69.00;;;;;;4514039;31;20146;-68
2022/11/17 03:47:50;;;;;;;;;;;18.70;69.00;;;;;;4516155;31;20129;-67
2022/11/17 03:50:20;;;;;;;;;;;18.80;69.00;;;;;;4510071;31;20086;-68
2022/11/17 03:52:46;;;;;;;;;;;18.70;69.00;;;;;;4505092;31;20029;-67
2022/11/17 03:55:12;;;;;;;;;;;18.70;68.90;;;;;;4513473;31;20013;-67
2022/11/17 03:57:47;;;;;;;;;;;18.70;69.00;;;;;;4514740;31;20033;-67
2022/11/17 04:00:14;;;;;;;;;;;18.70;68.90;;;;;;4512057;31;20029;-68
2022/11/17 04:02:41;;;;;;;;;;;18.70;68.90;;;;;;4510872;31;20516;-67
2022/11/17 04:05:08;;;;;;;;;;;18.70;69.00;;;;;;4527810;31;20055;-67
2022/11/17 04:07:35;;;;;;;;;;;18.70;69.00;;;;;;4511548;31;20078;-67
2022/11/17 04:10:01;;;;;;;;;;;18.70;68.90;;;;;;4511958;31;20082;-67
2022/11/17 04:17:55;;;;;;;;;;;18.60;68.90;;;;;;4515437;31;20090;-67
2022/11/17 04:20:21;;;;;;;;;;;18.60;68.90;;;;;;4513254;31;20020;-67
2022/11/17 04:23:05;;;;;;;;;;;18.60;68.80;;;;;;4514411;31;20360;-68
2022/11/17 04:31:07;;;;;;;;;;;18.60;68.90;;;;;;4515445;31;20421;-67
2022/11/17 04:33:33;;;;;;;;;;;18.60;68.80;;;;;;4511029;31;20041;-67
2022/11/17 04:36:00;;;;;;;;;;;18.60;68.80;;;;;;4514976;31;20154;-67
2022/11/17 04:38:26;;;;;;;;;;;18.60;68.80;;;;;;4511045;31;19985;-67
2022/11/17 04:43:37;;;;;;;;;;;18.50;68.90;;;;;;4510156;31;20048;-67
2022/11/17 04:46:03;;;;;;;;;;;18.50;68.80;;;;;;4513168;31;20032;-67
2022/11/17 04:48:29;;;;;;;;;;;18.50;68.80;;;;;;4513990;31;20025;-67
2022/11/17 04:50:55;;;;;;;;;;;18.50;68.80;;;;;;4513487;31;20027;-67
2022/11/17 04:53:21;;;;;;;;;;;18.50;68.80;;;;;;4514156;31;20048;-67
2022/11/17 04:55:47;;;;;;;;;;;18.50;68.80;;;;;;4514758;31;20029;-67
2022/11/17 04:58:13;;;;;;;;;;;18.50;68.80;;;;;;4512958;31;20151;-67
2022/11/17 05:00:39;;;;;;;;;;;18.50;68.80;;;;;;4514534;31;20025;-67
2022/11/17 05:03:06;;;;;;;;;;;18.50;68.80;;;;;;4512837;31;20033;-67
2022/11/17 05:05:31;;;;;;;;;;;18.40;68.80;;;;;;4510648;31;20032;-67
2022/11/17 05:07:57;;;;;;;;;;;18.40;68.70;;;;;;4512557;31;20159;-67
2022/11/17 05:13:20;;;;;;;;;;;18.40;68.70;;;;;;4514662;31;20032;-67
2022/11/17 05:18:41;;;;;;;;;;;18.40;68.60;;;;;;4513654;31;20508;-67
2022/11/17 05:21:08;;;;;;;;;;;18.40;68.70;;;;;;4513882;31;19996;-67
2022/11/17 05:26:19;;;;;;;;;;;18.40;68.70;;;;;;4514688;31;20032;-67
2022/11/17 05:28:45;;;;;;;;;;;18.40;68.70;;;;;;4512219;31;20170;-67
2022/11/17 05:31:10;;;;;;;;;;;18.40;68.60;;;;;;4510725;31;20385;-67
2022/11/17 05:33:36;;;;;;;;;;;18.40;68.60;;;;;;4508681;31;20021;-67
2022/11/17 05:36:04;;;;;;;;;;;18.40;68.60;;;;;;4512835;31;20032;-67
2022/11/17 05:38:30;;;;;;;;;;;18.30;68.50;;;;;;4513763;31;20019;-67
2022/11/17 05:40:56;;;;;;;;;;;18.30;68.50;;;;;;4508805;31;20020;-67
2022/11/17 05:43:21;;;;;;;;;;;18.30;68.50;;;;;;4508675;31;20043;-67
2022/11/17 05:45:47;;;;;;;;;;;18.30;68.50;;;;;;4512018;31;20029;-67
2022/11/17 05:48:14;;;;;;;;;;;18.30;68.50;;;;;;4514121;31;20101;-67
2022/11/17 05:50:40;;;;;;;;;;;18.30;68.40;;;;;;4512285;31;20037;-67
2022/11/17 05:53:06;;;;;;;;;;;18.30;68.40;;;;;;4513827;31;20043;-67
2022/11/17 05:55:32;;;;;;;;;;;18.30;68.40;;;;;;4512548;31;19993;-66
2022/11/17 05:58:01;;;;;;;;;;;18.20;68.40;;;;;;4512332;31;20154;-67
2022/11/17 06:00:27;;;;;;;;;;;18.30;68.40;;;;;;4510468;31;20563;-67
2022/11/17 06:02:55;;;;;;;;;;;18.20;68.30;;;;;;4510394;31;20109;-67
2022/11/17 06:05:24;;;;;;;;;;;18.20;68.30;;;;;;4513835;31;20035;-67
2022/11/17 06:07:53;;;;;;;;;;;18.30;68.40;;;;;;4512341;31;20560;-67
2022/11/17 06:10:19;;;;;;;;;;;18.20;68.30;;;;;;4513627;31;20024;-67
2022/11/17 06:12:45;;;;;;;;;;;18.20;68.20;;;;;;4513592;31;20037;-67
2022/11/17 06:15:11;;;;;;;;;;;18.20;68.20;;;;;;4508587;31;20032;-67
2022/11/17 06:17:39;;;;;;;;;;;18.20;68.20;;;;;;4509603;31;20032;-67
2022/11/17 06:20:16;;;;;;;;;;;18.20;68.20;;;;;;4510709;31;20036;-67
2022/11/17 06:22:42;;;;;;;;;;;18.20;68.20;;;;;;4510265;31;20135;-67
2022/11/17 06:25:09;;;;;;;;;;;18.20;68.10;;;;;;4508938;31;20073;-67
2022/11/17 06:27:35;;;;;;;;;;;18.20;68.20;;;;;;4513073;31;20091;-67
2022/11/17 06:30:02;;;;;;;;;;;18.20;68.20;;;;;;4514789;31;20131;-67
2022/11/17 06:32:28;;;;;;;;;;;18.10;68.10;;;;;;4515262;31;20024;-67
2022/11/17 06:34:54;;;;;;;;;;;18.10;68.10;;;;;;4516916;31;20040;-67
2022/11/17 06:37:21;;;;;;;;;;;18.10;68.10;;;;;;4513673;31;20029;-67
2022/11/17 06:39:46;;;;;;;;;;;18.10;68.00;;;;;;4513311;31;20040;-67
2022/11/17 06:42:12;;;;;;;;;;;18.10;69.00;;;;;;4513372;31;20032;-67
2022/11/17 06:44:38;;;;;;;;;;;18.10;68.10;;;;;;4516330;31;20099;-67
2022/11/17 06:47:04;;;;;;;;;;;18.10;68.00;;;;;;4516393;31;19999;-67
2022/11/17 06:49:29;;;;;;;;;;;18.10;68.00;;;;;;4515007;31;20527;-67
2022/11/17 06:51:55;;;;;;;;;;;18.10;68.10;;;;;;4516874;31;20076;-67
2022/11/17 06:54:20;;;;;;;;;;;18.10;68.00;;;;;;4514584;31;20504;-67
2022/11/17 06:56:48;;;;;;;;;;;18.00;68.00;;;;;;4515755;31;20016;-67
2022/11/17 06:59:14;;;;;;;;;;;18.10;68.00;;;;;;4510935;31;20080;-67
2022/11/17 07:01:40;;;;;;;;;;;18.00;68.00;;;;;;4520335;31;20161;-67
2022/11/17 07:04:07;;;;;;;;;;;18.00;67.90;;;;;;4515931;31;20115;-66
2022/11/17 07:06:36;;;;;;;;;;;18.00;68.00;;;;;;4513910;31;20063;-67
2022/11/17 07:09:03;;;;;;;;;;;18.00;68.00;;;;;;4501979;31;20056;-67
2022/11/17 07:11:29;;;;;;;;;;;18.00;68.00;;;;;;4514520;31;20090;-67
2022/11/17 07:13:55;;;;;;;;;;;18.00;68.00;;;;;;4502196;31;20021;-67
2022/11/17 07:16:21;;;;;;;;;;;18.00;67.90;;;;;;4513235;31;20608;-67
2022/11/17 07:18:47;;;;;;;;;;;18.00;67.90;;;;;;4516027;31;20024;-67
2022/11/17 07:21:13;;;;;;;;;;;18.00;67.90;;;;;;4515758;31;20023;-67
2022/11/17 07:23:40;;;;;;;;;;;17.90;67.90;;;;;;4511055;31;20035;-67
2022/11/17 07:26:05;;;;;;;;;;;17.90;67.80;;;;;;4508999;31;20044;-67
2022/11/17 07:28:33;;;;;;;;;;;17.90;67.90;;;;;;4514153;31;20623;-67
2022/11/17 07:31:03;;;;;;;;;;;17.90;67.90;;;;;;4516300;31;20033;-67
2022/11/17 07:33:28;;;;;;;;;;;17.90;67.80;;;;;;4510315;31;20033;-67
2022/11/17 07:35:54;;;;;;;;;;;17.90;67.90;;;;;;4499697;31;20009;-67
2022/11/17 07:38:21;;;;;;;;;;;17.90;67.90;;;;;;4498322;31;20047;-66
2022/11/17 07:40:47;;;;;;;;;;;17.90;67.80;;;;;;4509505;31;20021;-67
2022/11/17 07:43:13;;;;;;;;;;;17.90;67.80;;;;;;4501090;31;20146;-67
2022/11/17 07:45:38;;;;;;;;;;;17.90;67.90;;;;;;4500342;31;20021;-67
2022/11/17 07:48:05;;;;;;;;;;;17.90;67.90;;;;;;4507788;31;20033;-67
2022/11/17 07:50:31;;;;;;;;;;;17.80;67.80;;;;;;4511540;31;20171;-67
2022/11/17 07:52:57;;;;;;;;;;;17.90;67.80;;;;;;4515715;31;20028;-67
2022/11/17 07:55:24;;;;;;;;;;;17.80;67.70;;;;;;4515299;31;20031;-67
2022/11/17 07:57:53;;;;;;;;;;;17.80;67.70;;;;;;4513604;31;20021;-68
2022/11/17 08:00:18;;;;;;;;;;;17.80;67.70;;;;;;4512015;31;20072;-67
2022/11/17 08:02:44;;;;;;;;;;;17.80;67.30;;;;;;4504041;31;20109;-67
2022/11/17 08:05:10;;;;;;;;;;;17.80;66.40;;;;;;4498534;31;20001;-67
2022/11/17 08:07:36;;;;;;;;;;;17.70;66.90;;;;;;4510524;31;20049;-67
2022/11/17 08:10:02;;;;;;;;;;;17.70;66.90;;;;;;4515426;31;20086;-66
2022/11/17 08:12:27;;;;;;;;;;;17.70;67.20;;;;;;4514826;31;19977;-66
2022/11/17 08:14:53;;;;;;;;;;;17.70;67.50;;;;;;4526374;31;20021;-68
2022/11/17 08:17:19;;;;;;;;;;;17.80;67.90;;;;;;4514558;31;20072;-68
2022/11/17 08:19:44;;;;;;;;;;;17.80;67.90;;;;;;4509777;31;20028;-68
2022/11/17 08:22:10;;;;;;;;;;;17.90;67.90;;;;;;4515523;31;20068;-68
2022/11/17 08:24:36;;;;;;;;;;;17.90;68.30;;;;;;4513441;31;20012;-68
2022/11/17 08:27:02;;;;;;;;;;;18.00;68.30;;;;;;4511419;31;20025;-68
2022/11/17 08:29:27;;;;;;;;;;;18.10;68.00;;;;;;4506599;31;20028;-67
2022/11/17 08:31:53;;;;;;;;;;;18.20;67.60;;;;;;4512402;31;20013;-68
2022/11/17 08:34:19;;;;;;;;;;;18.40;67.20;;;;;;4515013;31;20025;-68
2022/11/17 08:36:44;;;;;;;;;;;18.50;66.60;;;;;;4513088;31;20205;-69
2022/11/17 08:39:11;;;;;;;;;;;18.60;66.10;;;;;;4511433;31;20037;-68
2022/11/17 08:41:37;;;;;;;;;;;18.70;65.70;;;;;;4503276;31;20035;-69
2022/11/17 08:44:02;;;;;;;;;;;18.80;65.30;;;;;;4513956;31;20476;-67
2022/11/17 08:46:28;;;;;;;;;;;18.90;65.00;;;;;;4509880;31;20021;-67
2022/11/17 08:48:54;;;;;;;;;;;19.00;64.80;;;;;;4511206;31;20016;-69
2022/11/17 08:51:20;;;;;;;;;;;19.00;64.60;;;;;;4513172;31;19984;-69
2022/11/17 08:53:45;;;;;;;;;;;19.10;64.50;;;;;;4511348;31;20025;-69
2022/11/17 08:56:11;;;;;;;;;;;19.20;64.30;;;;;;4513513;31;20013;-68
2022/11/17 08:58:41;;;;;;;;;;;19.20;64.10;;;;;;4512234;31;20029;-68
2022/11/17 09:01:08;;;;;;;;;;;19.30;64.00;;;;;;4514509;31;20028;-68
2022/11/17 09:03:33;;;;;;;;;;;19.30;63.90;;;;;;4512883;31;20539;-67
2022/11/17 09:06:01;;;;;;;;;;;19.40;63.80;;;;;;4513554;31;20033;-69
2022/11/17 09:08:27;;;;;;;;;;;19.40;63.70;;;;;;4513910;31;19999;-67
2022/11/17 09:10:52;;;;;;;;;;;19.50;63.70;;;;;;4511176;31;20086;-68
2022/11/17 09:13:18;;;;;;;;;;;19.50;63.60;;;;;;4514284;31;20037;-68
2022/11/17 09:15:44;;;;;;;;;;;19.50;63.50;;;;;;4512143;31;20146;-69
2022/11/17 09:18:10;;;;;;;;;;;19.50;63.40;;;;;;4499836;31;20017;-69
2022/11/17 09:20:35;;;;;;;;;;;19.60;63.30;;;;;;4511037;31;20025;-68
2022/11/17 09:23:01;;;;;;;;;;;19.60;63.20;;;;;;4512646;31;20162;-68
2022/11/17 09:25:27;;;;;;;;;;;19.70;64.10;;;;;;4512464;31;19969;-68
2022/11/17 09:27:53;;;;;;;;;;;19.70;63.10;;;;;;4512429;31;20092;-68
2022/11/17 09:30:21;;;;;;;;;;;19.70;63.20;;;;;;4514407;31;20044;-69
2022/11/17 09:32:47;;;;;;;;;;;19.70;63.10;;;;;;4512152;31;20029;-69
2022/11/17 09:35:13;;;;;;;;;;;19.70;63.10;;;;;;4526357;31;20077;-69
2022/11/17 09:37:39;;;;;;;;;;;19.80;63.10;;;;;;4512416;31;20032;-69
2022/11/17 09:40:06;;;;;;;;;;;19.80;63.80;;;;;;4513964;31;20036;-69
2022/11/17 09:42:36;;;;;;;;;;;19.80;62.90;;;;;;4513677;31;19981;-68
2022/11/17 09:45:03;;;;;;;;;;;19.80;63.10;;;;;;4512803;31;20755;-69
2022/11/17 09:47:33;;;;;;;;;;;19.80;63.10;;;;;;4511854;31;20090;-68
2022/11/17 09:50:18;;;;;;;;;;;19.80;63.10;;;;;;4512022;31;20139;-68
2022/11/17 09:53:00;;;;;;;;;;;19.80;63.10;;;;;;4514094;31;20032;-70
2022/11/17 09:55:26;;;;;;;;;;;19.90;63.20;;;;;;4513859;31;20091;-70
2022/11/17 09:57:59;;;;;;;;;;;19.90;63.10;;;;;;4512366;31;20021;-69
2022/11/17 10:00:25;;;;;;;;;;;19.90;63.10;;;;;;4510472;31;20021;-69
2022/11/17 10:02:52;;;;;;;;;;;19.90;63.10;;;;;;4523223;31;20052;-70
2022/11/17 10:05:22;;;;;;;;;;;19.90;63.10;;;;;;4513457;31;20170;-69
2022/11/17 10:07:49;;;;;;;;;;;19.90;63.10;;;;;;4512144;31;20085;-68
2022/11/17 10:10:18;;;;;;;;;;;20.00;63.20;;;;;;4513269;31;20033;-68
2022/11/17 10:12:48;;;;;;;;;;;20.00;63.10;;;;;;4513858;31;20013;-67
2022/11/17 10:15:32;;;;;;;;;;;19.90;63.10;;;;;;4498089;31;20095;-68
2022/11/17 10:17:57;;;;;;;;;;;20.00;63.10;;;;;;4498968;31;20446;-71
2022/11/17 10:20:23;;;;;;;;;;;20.00;63.00;;;;;;4496537;31;20031;-72
2022/11/17 10:22:50;;;;;;;;;;;20.00;63.00;;;;;;4496310;31;20032;-72
2022/11/17 10:25:21;;;;;;;;;;;20.00;62.90;;;;;;4508958;31;19989;-71
2022/11/17 10:27:52;;;;;;;;;;;20.00;62.90;;;;;;4497094;31;20154;-68
2022/11/17 10:30:18;;;;;;;;;;;20.00;62.90;;;;;;4511697;31;20033;-67
2022/11/17 10:32:48;;;;;;;;;;;20.00;62.80;;;;;;4509050;31;20009;-67
2022/11/17 10:35:15;;;;;;;;;;;20.10;62.80;;;;;;4522217;31;20049;-68
2022/11/17 10:37:52;;;;;;;;;;;20.10;62.80;;;;;;4495469;31;20036;-70
2022/11/17 10:40:20;;;;;;;;;;;20.10;62.80;;;;;;4498012;31;20033;-71
2022/11/17 10:42:57;;;;;;;;;;;20.10;62.70;;;;;;4503821;31;19985;-69
2022/11/17 10:45:23;;;;;;;;;;;20.10;62.80;;;;;;4508450;31;20017;-67
2022/11/17 10:47:49;;;;;;;;;;;20.10;62.70;;;;;;4499384;31;20025;-68
2022/11/17 10:50:23;;;;;;;;;;;20.10;62.70;;;;;;4496570;31;20253;-68
2022/11/17 10:52:49;;;;;;;;;;;20.10;62.70;;;;;;4502828;31;20080;-70
2022/11/17 10:55:30;;;;;;;;;;;20.10;62.70;;;;;;4511891;31;20066;-69
2022/11/17 10:58:14;;;;;;;;;;;20.10;62.70;;;;;;4511833;31;20048;-70
2022/11/17 11:00:41;;;;;;;;;;;20.10;62.70;;;;;;4512424;31;20032;-68
2022/11/17 11:03:14;;;;;;;;;;;20.10;62.70;;;;;;4523743;31;20090;-70
2022/11/17 11:05:53;;;;;;;;;;;20.00;62.80;;;;;;4512009;31;20512;-69
2022/11/17 11:08:24;;;;;;;;;;;19.90;62.90;;;;;;4502706;31;20398;-68
2022/11/17 11:10:51;;;;;;;;;;;19.80;63.20;;;;;;4511455;31;20036;-68
2022/11/17 11:13:26;;;;;;;;;;;19.80;63.40;;;;;;4513476;31;20043;-69
2022/11/17 11:15:52;;;;;;;;;;;19.70;63.60;;;;;;4512239;31;20087;-69
2022/11/17 11:18:18;;;;;;;;;;;19.70;63.60;;;;;;4515087;31;20248;-66
2022/11/17 11:20:58;;;;;;;;;;;19.70;63.70;;;;;;4513961;31;20135;-70
2022/11/17 11:23:44;;;;;;;;;;;19.70;63.70;;;;;;4514850;31;20028;-71
2022/11/17 11:26:29;;;;;;;;;;;19.70;63.60;;;;;;4516466;31;20175;-70
2022/11/17 11:29:01;;;;;;;;;;;19.80;63.60;;;;;;4514420;31;20032;-71
2022/11/17 11:31:45;;;;;;;;;;;19.90;63.50;;;;;;4512496;31;20029;-70
2022/11/17 11:34:26;;;;;;;;;;;19.90;63.30;;;;;;4505823;31;20142;-69
2022/11/17 11:36:52;;;;;;;;;;;20.00;63.30;;;;;;4511477;31;20078;-70
2022/11/17 11:39:24;;;;;;;;;;;20.00;63.20;;;;;;4512319;31;20029;-69
2022/11/17 11:42:06;;;;;;;;;;;20.10;63.20;;;;;;4509579;31;20118;-70
2022/11/17 11:44:47;;;;;;;;;;;20.10;63.10;;;;;;4515260;31;20040;-70
2022/11/17 11:47:22;;;;;;;;;;;20.20;63.20;;;;;;4515863;31;20036;-70
2022/11/17 11:49:51;;;;;;;;;;;20.20;63.00;;;;;;4514020;31;20033;-70
2022/11/17 11:52:20;;;;;;;;;;;20.20;63.00;;;;;;4514623;31;20121;-71
2022/11/17 11:55:00;;;;;;;;;;;20.20;63.00;;;;;;4498502;31;20501;-70
2022/11/17 11:57:29;;;;;;;;;;;20.20;63.00;;;;;;4501681;31;20035;-71
2022/11/17 11:59:57;;;;;;;;;;;20.30;63.00;;;;;;4515355;31;20037;-70
2022/11/17 12:02:26;;;;;;;;;;;20.30;62.90;;;;;;4499285;31;20048;-71
2022/11/17 12:04:58;;;;;;;;;;;20.30;62.90;;;;;;4508875;31;20477;-71
2022/11/17 12:07:42;;;;;;;;;;;20.30;62.80;;;;;;4513403;31;20465;-71
2022/11/17 12:10:16;;;;;;;;;;;20.30;62.80;;;;;;4512282;31;20197;-72
2022/11/17 12:12:44;;;;;;;;;;;20.30;62.80;;;;;;4507130;31;20029;-70
2022/11/17 12:15:11;;;;;;;;;;;20.30;62.60;;;;;;4510752;31;20047;-72
2022/11/17 12:17:52;;;;;;;;;;;20.30;63.50;;;;;;4501003;31;20180;-70
2022/11/17 12:20:36;;;;;;;;;;;20.30;62.60;;;;;;4509107;31;20029;-69
2022/11/17 12:23:05;;;;;;;;;;;20.30;62.70;;;;;;4509781;31;20094;-68
2022/11/17 12:25:33;;;;;;;;;;;20.30;62.70;;;;;;4511378;31;20417;-69
2022/11/17 12:28:17;;;;;;;;;;;20.30;62.80;;;;;;4505734;31;20033;-68
2022/11/17 12:30:43;;;;;;;;;;;20.30;62.70;;;;;;4515390;31;20392;-68
2022/11/17 12:33:09;;;;;;;;;;;20.30;62.70;;;;;;4509928;31;20573;-69
2022/11/17 12:35:35;;;;;;;;;;;20.40;62.70;;;;;;4514746;31;20032;-69
2022/11/17 12:38:16;;;;;;;;;;;20.40;62.70;;;;;;4510537;31;20028;-69
2022/11/17 12:40:42;;;;;;;;;;;20.40;62.70;;;;;;4512520;31;20029;-69
2022/11/17 12:43:15;;;;;;;;;;;20.40;62.60;;;;;;4513849;31;20182;-68
2022/11/17 12:46:00;;;;;;;;;;;20.40;62.70;;;;;;4512790;31;20045;-68
2022/11/17 12:48:33;;;;;;;;;;;20.40;62.80;;;;;;4513869;31;20574;-68
2022/11/17 12:51:04;;;;;;;;;;;20.40;62.80;;;;;;4514429;31;20084;-68
2022/11/17 12:53:39;;;;;;;;;;;20.40;62.80;;;;;;4513325;31;20453;-68
2022/11/17 12:56:06;;;;;;;;;;;20.30;62.70;;;;;;4514493;31;20043;-70
2022/11/17 12:58:47;;;;;;;;;;;20.30;62.80;;;;;;4495584;31;20037;-77
2022/11/17 13:01:27;;;;;;;;;;;20.30;63.00;;;;;;4502203;31;20043;-68
2022/11/17 13:03:59;;;;;;;;;;;20.30;63.10;;;;;;4498542;31;20044;-67
2022/11/17 13:06:24;;;;;;;;;;;20.20;63.20;;;;;;4500113;31;20218;-67
2022/11/17 13:09:10;;;;;;;;;;;20.20;63.20;;;;;;4498074;31;20492;-66
2022/11/17 13:11:36;;;;;;;;;;;20.20;63.30;;;;;;4496120;31;20025;-66
2022/11/17 13:14:09;;;;;;;;;;;20.30;63.30;;;;;;4500108;31;20044;-66
2022/11/17 13:16:36;;;;;;;;;;;20.40;63.30;;;;;;4482739;31;23000;-67
2022/11/17 13:19:22;;;;;;;;;;;20.40;63.20;;;;;;4512285;31;20478;-68
2022/11/17 13:21:48;;;;;;;;;;;20.40;63.20;;;;;;4513981;31;20025;-68
2022/11/17 13:24:26;;;;;;;;;;;20.50;63.20;;;;;;4497713;31;20071;-69
2022/11/17 13:27:06;;;;;;;;;;;20.50;63.20;;;;;;4513959;31;20043;-68
2022/11/17 13:29:32;;;;;;;;;;;20.50;63.10;;;;;;4511046;31;20178;-67
2022/11/17 13:32:10;;;;;;;;;;;20.50;63.10;;;;;;4512643;31;20078;-67
2022/11/17 13:34:43;;;;;;;;;;;20.50;63.10;;;;;;4510524;31;20086;-67
2022/11/17 13:37:13;;;;;;;;;;;20.50;63.10;;;;;;4510182;31;20691;-69
2022/11/17 13:39:54;;;;;;;;;;;20.50;63.10;;;;;;4513334;31;20036;-68
2022/11/17 13:42:20;;;;;;;;;;;20.40;63.20;;;;;;4525496;31;20318;-67
2022/11/17 13:44:47;;;;;;;;;;;20.30;63.50;;;;;;4512419;31;20036;-68
2022/11/17 13:47:16;;;;;;;;;;;20.20;63.80;;;;;;4514154;31;20027;-68
2022/11/17 13:49:42;;;;;;;;;;;20.20;63.90;;;;;;4511953;31;20141;-68
2022/11/17 13:52:13;;;;;;;;;;;20.20;64.10;;;;;;4514129;31;20098;-68
2022/11/17 13:54:42;;;;;;;;;;;20.20;64.20;;;;;;4505255;31;20483;-68
2022/11/17 13:57:23;;;;;;;;;;;20.10;64.20;;;;;;4512705;31;20029;-68
2022/11/17 13:59:49;;;;;;;;;;;20.10;64.30;;;;;;4514001;31;19981;-68
2022/11/17 14:02:15;;;;;;;;;;;20.10;64.30;;;;;;4511889;31;20078;-68
2022/11/17 14:04:41;;;;;;;;;;;20.10;64.40;;;;;;4513844;31;20179;-68
2022/11/17 14:07:08;;;;;;;;;;;20.10;64.50;;;;;;4511913;31;20114;-68
2022/11/17 14:09:35;;;;;;;;;;;20.10;64.40;;;;;;4506485;31;20223;-69
2022/11/17 14:12:07;;;;;;;;;;;20.10;64.50;;;;;;4508626;31;20046;-68
2022/11/17 14:14:38;;;;;;;;;;;20.10;64.50;;;;;;4512897;31;20478;-68
2022/11/17 14:17:11;;;;;;;;;;;20.10;64.50;;;;;;4507109;31;20029;-68
2022/11/17 14:19:37;;;;;;;;;;;20.10;64.50;;;;;;4511578;31;20494;-68
2022/11/17 14:22:20;;;;;;;;;;;20.10;64.50;;;;;;4513933;31;20043;-68
2022/11/17 14:24:46;;;;;;;;;;;20.10;64.50;;;;;;4512363;31;20082;-68
2022/11/17 14:27:33;;;;;;;;;;;20.10;64.50;;;;;;4509561;31;20059;-68
2022/11/17 14:29:59;;;;;;;;;;;20.10;64.60;;;;;;4506455;31;20026;-68
2022/11/17 14:32:25;;;;;;;;;;;20.10;64.50;;;;;;4511804;31;20032;-68
2022/11/17 14:34:50;;;;;;;;;;;20.10;64.60;;;;;;4513743;31;20036;-69
2022/11/17 14:37:16;;;;;;;;;;;20.10;64.50;;;;;;4507985;31;20051;-68
2022/11/17 14:39:42;;;;;;;;;;;20.10;64.50;;;;;;4506269;31;20040;-68
2022/11/17 14:42:09;;;;;;;;;;;20.10;64.50;;;;;;4511602;31;20017;-68
2022/11/17 14:44:36;;;;;;;;;;;20.10;64.50;;;;;;4512746;31;20143;-68
2022/11/17 14:47:02;;;;;;;;;;;20.20;64.60;;;;;;4510657;31;20032;-68
2022/11/17 14:49:28;;;;;;;;;;;20.20;64.60;;;;;;4511810;31;20021;-69
2022/11/17 14:51:56;;;;;;;;;;;20.10;64.50;;;;;;4516108;31;20021;-68
2022/11/17 14:54:21;;;;;;;;;;;20.20;64.60;;;;;;4513593;31;20191;-68
2022/11/17 14:56:47;;;;;;;;;;;20.10;64.50;;;;;;4516802;31;20440;-68
2022/11/17 14:59:13;;;;;;;;;;;20.20;64.70;;;;;;4515201;31;20071;-68